createdAt,value
2019-04-04T00:00:03.455Z,0.00
2019-04-04T00:01:03.448Z,0.00
2019-04-04T00:02:03.432Z,0.00
2019-04-04T00:03:03.418Z,0.00
2019-04-04T00:04:03.406Z,0.00
2019-04-04T00:05:03.402Z,0.00
2019-04-04T00:06:03.384Z,0.00
2019-04-04T00:07:03.415Z,0.00
2019-04-04T00:08:03.362Z,0.00
2019-04-04T00:09:03.349Z,0.00
2019-04-04T00:10:04.068Z,0.00
2019-04-04T00:11:04.079Z,0.00
2019-04-04T00:12:03.316Z,0.00
2019-04-04T00:13:03.315Z,0.00
2019-04-04T00:14:03.288Z,0.00
2019-04-04T00:15:03.282Z,0.00
2019-04-04T00:16:03.266Z,0.00
2019-04-04T00:17:09.417Z,0.00
2019-04-04T00:18:03.257Z,0.00
2019-04-04T00:19:03.271Z,0.00
2019-04-04T00:20:03.224Z,0.00
2019-04-04T00:21:03.278Z,0.00
2019-04-04T00:22:04.907Z,0.00
2019-04-04T00:23:03.193Z,0.00
2019-04-04T00:24:03.177Z,0.00
2019-04-04T00:25:03.170Z,0.00
2019-04-04T00:26:03.158Z,0.00
2019-04-04T00:27:03.140Z,0.00
2019-04-04T00:28:03.127Z,0.00
2019-04-04T00:29:03.122Z,0.00
2019-04-04T00:30:03.110Z,0.00
2019-04-04T00:31:03.133Z,0.00
2019-04-04T00:32:03.090Z,0.00
2019-04-04T00:33:03.075Z,0.00
2019-04-04T00:34:03.061Z,0.00
2019-04-04T00:35:03.052Z,0.00
2019-04-04T00:36:03.354Z,0.00
2019-04-04T00:37:04.723Z,0.00
2019-04-04T00:38:03.021Z,0.00
2019-04-04T00:39:03.003Z,0.00
2019-04-04T00:40:02.995Z,0.00
2019-04-04T00:41:02.989Z,0.00
2019-04-04T00:42:02.983Z,0.00
2019-04-04T00:43:03.058Z,0.00
2019-04-04T00:44:02.949Z,0.00
2019-04-04T00:45:02.935Z,0.00
2019-04-04T00:46:02.933Z,0.00
2019-04-04T00:47:02.913Z,0.00
2019-04-04T00:48:03.582Z,0.00
2019-04-04T00:49:09.296Z,0.00
2019-04-04T00:50:06.085Z,0.00
2019-04-04T00:51:02.863Z,0.00
2019-04-04T00:52:02.857Z,0.00
2019-04-04T00:53:02.850Z,0.00
2019-04-04T00:54:02.832Z,0.00
2019-04-04T00:55:02.826Z,0.00
2019-04-04T00:56:02.806Z,0.00
2019-04-04T00:57:02.827Z,0.00
2019-04-04T00:58:02.793Z,0.00
2019-04-04T00:59:02.814Z,0.00
2019-04-04T01:00:02.767Z,0.00
2019-04-04T01:01:02.754Z,0.00
2019-04-04T01:02:02.737Z,0.00
2019-04-04T01:03:02.729Z,0.00
2019-04-04T01:04:02.715Z,0.00
2019-04-04T01:05:02.717Z,0.00
2019-04-04T01:06:03.585Z,0.00
2019-04-04T01:07:04.694Z,0.00
2019-04-04T01:08:02.670Z,0.00
2019-04-04T01:09:02.696Z,0.00
2019-04-04T01:10:02.647Z,0.00
2019-04-04T01:11:02.642Z,0.00
2019-04-04T01:12:02.638Z,0.00
2019-04-04T01:13:02.614Z,0.00
2019-04-04T01:14:02.606Z,0.00
2019-04-04T01:15:02.607Z,0.00
2019-04-04T01:16:03.322Z,0.00
2019-04-04T01:17:04.120Z,0.00
2019-04-04T01:18:04.073Z,0.00
2019-04-04T01:19:02.550Z,0.00
2019-04-04T01:20:02.534Z,0.00
2019-04-04T01:21:08.940Z,0.00
2019-04-04T01:22:02.516Z,0.00
2019-04-04T01:23:02.499Z,0.00
2019-04-04T01:24:02.491Z,0.00
2019-04-04T01:25:02.490Z,0.00
2019-04-04T01:26:03.515Z,0.00
2019-04-04T01:27:05.919Z,0.00
2019-04-04T01:28:02.446Z,0.00
2019-04-04T01:29:02.436Z,0.00
2019-04-04T01:30:02.420Z,0.00
2019-04-04T01:31:02.405Z,0.00
2019-04-04T01:32:02.441Z,0.00
2019-04-04T01:33:03.822Z,0.00
2019-04-04T01:34:02.371Z,0.00
2019-04-04T01:35:02.363Z,0.00
2019-04-04T01:36:02.355Z,0.00
2019-04-04T01:37:02.346Z,0.00
2019-04-04T01:38:02.343Z,0.00
2019-04-04T01:39:02.318Z,0.00
2019-04-04T01:40:02.871Z,0.00
2019-04-04T01:41:04.327Z,0.00
2019-04-04T01:42:02.289Z,0.00
2019-04-04T01:43:02.275Z,0.00
2019-04-04T01:44:05.260Z,0.00
2019-04-04T01:45:02.246Z,0.00
2019-04-04T01:46:02.235Z,0.00
2019-04-04T01:47:02.230Z,0.00
2019-04-04T01:48:02.222Z,0.00
2019-04-04T01:49:02.243Z,0.00
2019-04-04T01:50:02.215Z,0.00
2019-04-04T01:51:02.181Z,0.00
2019-04-04T01:52:02.165Z,0.00
2019-04-04T01:53:08.541Z,0.00
2019-04-04T01:54:02.141Z,0.00
2019-04-04T01:55:03.415Z,0.00
2019-04-04T01:56:02.123Z,0.00
2019-04-04T01:57:02.108Z,0.00
2019-04-04T01:58:02.100Z,0.00
2019-04-04T01:59:02.091Z,0.00
2019-04-04T02:00:02.088Z,0.00
2019-04-04T02:01:02.065Z,0.00
2019-04-04T02:02:02.048Z,0.00
2019-04-04T02:03:02.037Z,0.00
2019-04-04T02:04:02.028Z,0.00
2019-04-04T02:05:02.056Z,0.00
2019-04-04T02:06:02.005Z,0.00
2019-04-04T02:07:02.008Z,0.00
2019-04-04T02:08:01.979Z,0.00
2019-04-04T02:09:02.847Z,0.00
2019-04-04T02:10:03.241Z,0.00
2019-04-04T02:11:01.959Z,0.00
2019-04-04T02:12:01.938Z,0.00
2019-04-04T02:13:01.966Z,0.00
2019-04-04T02:14:01.913Z,0.00
2019-04-04T02:15:01.909Z,0.00
2019-04-04T02:16:01.895Z,0.00
2019-04-04T02:17:01.881Z,0.00
2019-04-04T02:18:01.865Z,0.00
2019-04-04T02:19:01.867Z,0.00
2019-04-04T02:20:01.850Z,0.00
2019-04-04T02:21:01.833Z,0.00
2019-04-04T02:22:01.822Z,0.00
2019-04-04T02:23:01.959Z,0.00
2019-04-04T02:24:02.084Z,0.00
2019-04-04T02:25:08.261Z,0.00
2019-04-04T02:26:04.898Z,0.00
2019-04-04T02:27:01.765Z,0.00
2019-04-04T02:28:01.754Z,0.00
2019-04-04T02:29:01.743Z,0.00
2019-04-04T02:30:01.773Z,0.00
2019-04-04T02:31:01.731Z,0.00
2019-04-04T02:32:01.708Z,0.00
2019-04-04T02:33:01.698Z,0.00
2019-04-04T02:34:05.368Z,0.00
2019-04-04T02:35:01.767Z,0.00
2019-04-04T02:36:01.712Z,0.00
2019-04-04T02:37:01.650Z,0.00
2019-04-04T02:38:01.647Z,0.00
2019-04-04T02:39:01.631Z,0.00
2019-04-04T02:40:01.614Z,0.00
2019-04-04T02:41:01.611Z,0.00
2019-04-04T02:42:01.604Z,0.00
2019-04-04T02:43:01.581Z,0.00
2019-04-04T02:44:01.571Z,0.00
2019-04-04T02:45:05.088Z,0.00
2019-04-04T02:46:01.544Z,0.00
2019-04-04T02:47:01.539Z,0.00
2019-04-04T02:48:01.537Z,0.00
2019-04-04T02:49:01.555Z,0.00
2019-04-04T02:50:02.283Z,0.00
2019-04-04T02:51:01.493Z,0.00
2019-04-04T02:52:01.491Z,0.00
2019-04-04T02:53:01.519Z,0.00
2019-04-04T02:54:01.458Z,0.00
2019-04-04T02:55:01.447Z,0.00
2019-04-04T02:56:03.323Z,0.00
2019-04-04T02:57:09.213Z,0.00
2019-04-04T02:58:01.406Z,0.00
2019-04-04T02:59:01.418Z,0.00
2019-04-04T03:00:01.419Z,0.00
2019-04-04T03:01:01.379Z,0.00
2019-04-04T03:02:04.881Z,0.00
2019-04-04T03:03:01.357Z,0.00
2019-04-04T03:04:01.343Z,0.00
2019-04-04T03:05:01.375Z,0.00
2019-04-04T03:06:01.321Z,0.00
2019-04-04T03:07:01.302Z,0.00
2019-04-04T03:08:04.170Z,0.00
2019-04-04T03:09:01.304Z,0.00
2019-04-04T03:10:01.285Z,0.00
2019-04-04T03:11:01.306Z,0.00
2019-04-04T03:12:01.298Z,0.00
2019-04-04T03:13:01.243Z,0.00
2019-04-04T03:14:03.684Z,0.00
2019-04-04T03:15:01.219Z,0.00
2019-04-04T03:16:01.203Z,0.00
2019-04-04T03:17:01.236Z,0.00
2019-04-04T03:18:03.915Z,0.00
2019-04-04T03:19:01.171Z,0.00
2019-04-04T03:20:01.165Z,0.00
2019-04-04T03:21:01.142Z,0.00
2019-04-04T03:22:01.144Z,0.00
2019-04-04T03:23:01.498Z,0.00
2019-04-04T03:24:01.115Z,0.00
2019-04-04T03:25:01.107Z,0.00
2019-04-04T03:26:01.093Z,0.00
2019-04-04T03:27:01.125Z,0.00
2019-04-04T03:28:01.074Z,0.00
2019-04-04T03:29:10.439Z,0.00
2019-04-04T03:30:01.067Z,0.00
2019-04-04T03:31:03.106Z,0.00
2019-04-04T03:32:01.031Z,0.00
2019-04-04T03:33:01.029Z,0.00
2019-04-04T03:34:08.697Z,0.00
2019-04-04T03:35:02.118Z,0.00
2019-04-04T03:36:01.363Z,0.00
2019-04-04T03:37:00.968Z,0.00
2019-04-04T03:38:00.953Z,0.00
2019-04-04T03:39:00.946Z,0.00
2019-04-04T03:40:00.944Z,0.00
2019-04-04T03:41:00.917Z,0.00
2019-04-04T03:42:00.919Z,0.00
2019-04-04T03:43:00.904Z,0.00
2019-04-04T03:44:00.898Z,0.00
2019-04-04T03:45:00.879Z,0.00
2019-04-04T03:46:01.648Z,0.00
2019-04-04T03:47:00.857Z,0.00
2019-04-04T03:48:00.845Z,0.00
2019-04-04T03:49:00.868Z,0.00
2019-04-04T03:50:00.813Z,0.00
2019-04-04T03:51:04.040Z,0.00
2019-04-04T03:52:00.795Z,0.00
2019-04-04T03:53:00.791Z,0.00
2019-04-04T03:54:00.779Z,0.00
2019-04-04T03:55:00.824Z,0.00
2019-04-04T03:56:01.573Z,0.00
2019-04-04T03:57:00.735Z,0.00
2019-04-04T03:58:00.726Z,0.00
2019-04-04T03:59:00.820Z,0.00
2019-04-04T04:00:05.597Z,0.00
2019-04-04T04:02:09.870Z,0.00
2019-04-04T04:03:09.851Z,0.00
2019-04-04T04:04:09.842Z,5.62
2019-04-04T04:05:09.831Z,5.62
2019-04-04T04:06:10.094Z,5.62
2019-04-04T04:07:13.814Z,5.62
2019-04-04T04:08:10.792Z,5.62
2019-04-04T04:09:09.792Z,5.62
2019-04-04T04:10:09.783Z,5.62
2019-04-04T04:11:09.763Z,5.62
2019-04-04T04:12:11.130Z,5.62
2019-04-04T04:13:09.738Z,5.62
2019-04-04T04:14:09.729Z,5.62
2019-04-04T04:15:09.721Z,5.62
2019-04-04T04:16:09.719Z,5.62
2019-04-04T04:17:11.590Z,5.62
2019-04-04T04:18:09.704Z,5.62
2019-04-04T04:19:09.676Z,5.62
2019-04-04T04:20:09.663Z,5.62
2019-04-04T04:21:10.928Z,11.25
2019-04-04T04:22:12.707Z,11.25
2019-04-04T04:23:09.629Z,11.25
2019-04-04T04:24:09.625Z,11.25
2019-04-04T04:25:09.600Z,11.25
2019-04-04T04:26:09.955Z,11.25
2019-04-04T04:27:14.436Z,11.25
2019-04-04T04:28:10.567Z,11.25
2019-04-04T04:29:09.590Z,11.25
2019-04-04T04:30:09.549Z,11.25
2019-04-04T04:31:14.177Z,11.25
2019-04-04T04:32:10.514Z,11.25
2019-04-04T04:33:09.502Z,11.25
2019-04-04T04:34:16.151Z,11.25
2019-04-04T04:35:09.490Z,11.25
2019-04-04T04:36:10.237Z,11.25
2019-04-04T04:37:09.456Z,16.88
2019-04-04T04:38:09.453Z,16.88
2019-04-04T04:39:09.433Z,16.88
2019-04-04T04:40:13.625Z,16.88
2019-04-04T04:41:10.415Z,16.88
2019-04-04T04:42:09.402Z,16.88
2019-04-04T04:43:09.391Z,16.88
2019-04-04T04:44:09.378Z,16.88
2019-04-04T04:45:12.156Z,16.88
2019-04-04T04:46:09.391Z,22.50
2019-04-04T04:47:09.343Z,22.50
2019-04-04T04:48:09.328Z,22.50
2019-04-04T04:49:09.325Z,22.50
2019-04-04T04:50:10.010Z,22.50
2019-04-04T04:51:11.513Z,22.50
2019-04-04T04:52:09.293Z,22.50
2019-04-04T04:53:09.281Z,22.50
2019-04-04T04:54:09.256Z,22.50
2019-04-04T04:55:11.873Z,22.50
2019-04-04T04:56:09.237Z,22.50
2019-04-04T04:57:09.225Z,28.12
2019-04-04T04:58:10.273Z,28.12
2019-04-04T04:59:09.204Z,28.12
2019-04-04T05:00:09.189Z,28.12
2019-04-04T05:01:09.183Z,28.12
2019-04-04T05:02:09.180Z,28.12
2019-04-04T05:03:09.158Z,28.12
2019-04-04T05:04:09.157Z,28.12
2019-04-04T05:05:09.129Z,28.12
2019-04-04T05:06:15.219Z,28.12
2019-04-04T05:07:09.114Z,28.12
2019-04-04T05:08:10.213Z,28.12
2019-04-04T05:09:09.091Z,33.75
2019-04-04T05:10:09.112Z,33.75
2019-04-04T05:11:09.062Z,33.75
2019-04-04T05:12:09.047Z,33.75
2019-04-04T05:13:09.040Z,33.75
2019-04-04T05:14:09.034Z,33.75
2019-04-04T05:15:09.019Z,39.38
2019-04-04T05:16:09.067Z,39.38
2019-04-04T05:17:10.215Z,39.38
2019-04-04T05:18:11.788Z,39.38
2019-04-04T05:19:08.975Z,39.38
2019-04-04T05:20:08.994Z,39.38
2019-04-04T05:21:08.946Z,39.38
2019-04-04T05:22:09.247Z,45.00
2019-04-04T05:23:11.095Z,50.62
2019-04-04T05:24:08.914Z,50.62
2019-04-04T05:25:09.149Z,56.25
2019-04-04T05:26:09.736Z,56.25
2019-04-04T05:27:08.884Z,61.88
2019-04-04T05:28:10.888Z,67.50
2019-04-04T05:29:08.866Z,67.50
2019-04-04T05:30:08.843Z,67.50
2019-04-04T05:31:08.856Z,73.12
2019-04-04T05:32:08.822Z,73.12
2019-04-04T05:33:08.810Z,73.12
2019-04-04T05:34:08.797Z,73.12
2019-04-04T05:35:08.788Z,67.50
2019-04-04T05:36:08.778Z,67.50
2019-04-04T05:37:08.811Z,61.88
2019-04-04T05:38:14.839Z,67.50
2019-04-04T05:39:08.756Z,73.12
2019-04-04T05:40:08.731Z,73.12
2019-04-04T05:41:08.735Z,78.75
2019-04-04T05:42:08.720Z,78.75
2019-04-04T05:43:08.734Z,78.75
2019-04-04T05:44:09.958Z,84.38
2019-04-04T05:45:08.676Z,84.38
2019-04-04T05:46:08.656Z,84.38
2019-04-04T05:47:08.653Z,84.38
2019-04-04T05:48:08.662Z,84.38
2019-04-04T05:49:08.674Z,78.75
2019-04-04T05:50:10.919Z,78.75
2019-04-04T05:51:08.598Z,78.75
2019-04-04T05:52:09.174Z,73.12
2019-04-04T05:53:08.591Z,73.12
2019-04-04T05:54:08.618Z,67.50
2019-04-04T05:55:10.833Z,67.50
2019-04-04T05:56:08.549Z,61.88
2019-04-04T05:57:08.537Z,61.88
2019-04-04T05:58:08.522Z,56.25
2019-04-04T05:59:08.521Z,50.62
2019-04-04T06:00:08.530Z,50.62
2019-04-04T06:01:08.485Z,45.00
2019-04-04T06:02:11.024Z,45.00
2019-04-04T06:03:08.484Z,45.00
2019-04-04T06:04:08.458Z,45.00
2019-04-04T06:05:08.475Z,45.00
2019-04-04T06:06:10.503Z,39.38
2019-04-04T06:07:08.429Z,39.38
2019-04-04T06:08:08.804Z,39.38
2019-04-04T06:09:08.405Z,45.00
2019-04-04T06:10:18.128Z,45.00
2019-04-04T06:11:08.369Z,45.00
2019-04-04T06:12:08.379Z,45.00
2019-04-04T06:13:08.351Z,50.62
2019-04-04T06:14:08.333Z,50.62
2019-04-04T06:15:08.324Z,56.25
2019-04-04T06:16:08.315Z,56.25
2019-04-04T06:17:08.300Z,61.88
2019-04-04T06:18:10.963Z,67.50
2019-04-04T06:19:08.282Z,67.50
2019-04-04T06:20:08.267Z,73.12
2019-04-04T06:21:08.251Z,78.75
2019-04-04T06:22:08.242Z,78.75
2019-04-04T06:23:08.232Z,78.75
2019-04-04T06:24:08.238Z,78.75
2019-04-04T06:25:08.252Z,84.38
2019-04-04T06:26:08.206Z,84.38
2019-04-04T06:27:09.102Z,84.38
2019-04-04T06:28:09.909Z,84.38
2019-04-04T06:29:08.165Z,84.38
2019-04-04T06:30:08.215Z,84.38
2019-04-04T06:31:08.139Z,84.38
2019-04-04T06:32:08.131Z,84.38
2019-04-04T06:33:08.114Z,78.75
2019-04-04T06:34:10.118Z,78.75
2019-04-04T06:35:08.096Z,78.75
2019-04-04T06:36:08.080Z,78.75
2019-04-04T06:37:08.069Z,73.12
2019-04-04T06:38:08.064Z,73.12
2019-04-04T06:39:08.058Z,73.12
2019-04-04T06:40:08.079Z,73.12
2019-04-04T06:41:08.023Z,73.12
2019-04-04T06:42:14.101Z,67.50
2019-04-04T06:43:11.502Z,67.50
2019-04-04T06:44:07.992Z,67.50
2019-04-04T06:45:07.976Z,67.50
2019-04-04T06:46:08.026Z,67.50
2019-04-04T06:47:07.973Z,61.88
2019-04-04T06:48:07.940Z,61.88
2019-04-04T06:49:07.930Z,61.88
2019-04-04T06:50:08.548Z,61.88
2019-04-04T06:51:07.909Z,56.25
2019-04-04T06:52:09.371Z,56.25
2019-04-04T06:53:07.887Z,56.25
2019-04-04T06:54:07.871Z,56.25
2019-04-04T06:55:07.865Z,50.62
2019-04-04T06:56:07.850Z,50.62
2019-04-04T06:57:07.874Z,50.62
2019-04-04T06:58:09.427Z,45.00
2019-04-04T06:59:11.335Z,45.00
2019-04-04T07:00:07.808Z,45.00
2019-04-04T07:01:07.805Z,39.38
2019-04-04T07:02:07.785Z,39.38
2019-04-04T07:03:07.808Z,39.38
2019-04-04T07:04:07.754Z,39.38
2019-04-04T07:05:10.386Z,39.38
2019-04-04T07:06:08.083Z,39.38
2019-04-04T07:07:07.718Z,39.38
2019-04-04T07:08:07.712Z,39.38
2019-04-04T07:09:07.708Z,39.38
2019-04-04T07:10:07.684Z,39.38
2019-04-04T07:11:20.597Z,39.38
2019-04-04T07:12:20.312Z,39.38
2019-04-04T07:13:21.164Z,39.38
2019-04-04T07:14:13.725Z,39.38
2019-04-04T07:15:11.004Z,39.38
2019-04-04T07:16:08.233Z,39.38
2019-04-04T07:17:08.685Z,45.00
2019-04-04T07:18:07.596Z,39.38
2019-04-04T07:19:08.210Z,39.38
2019-04-04T07:20:07.577Z,22.50
2019-04-04T07:21:07.566Z,28.12
2019-04-04T07:22:07.547Z,28.12
2019-04-04T07:23:07.570Z,28.12
2019-04-04T07:24:07.525Z,28.12
2019-04-04T07:25:07.516Z,22.50
2019-04-04T07:26:09.638Z,28.12
2019-04-04T07:27:08.488Z,22.50
2019-04-04T07:28:07.487Z,22.50
2019-04-04T07:29:07.494Z,22.50
2019-04-04T07:30:07.452Z,22.50
2019-04-04T07:31:07.440Z,22.50
2019-04-04T07:32:09.544Z,22.50
2019-04-04T07:33:07.422Z,22.50
2019-04-04T07:34:07.408Z,22.50
2019-04-04T07:35:07.436Z,22.50
2019-04-04T07:36:07.385Z,22.50
2019-04-04T07:37:07.369Z,22.50
2019-04-04T07:38:07.359Z,22.50
2019-04-04T07:39:07.349Z,22.50
2019-04-04T07:40:07.338Z,22.50
2019-04-04T07:41:08.416Z,22.50
2019-04-04T07:42:07.319Z,22.50
2019-04-04T07:43:08.758Z,22.50
2019-04-04T07:44:07.287Z,22.50
2019-04-04T07:45:07.285Z,22.50
2019-04-04T07:46:16.664Z,22.50
2019-04-04T07:47:07.255Z,22.50
2019-04-04T07:48:07.243Z,22.50
2019-04-04T07:49:07.244Z,22.50
2019-04-04T07:50:07.219Z,22.50
2019-04-04T07:51:07.211Z,22.50
2019-04-04T07:52:07.204Z,22.50
2019-04-04T07:53:07.183Z,22.50
2019-04-04T07:54:07.925Z,22.50
2019-04-04T07:55:09.879Z,22.50
2019-04-04T07:56:07.155Z,22.50
2019-04-04T07:57:07.137Z,22.50
2019-04-04T07:58:07.151Z,22.50
2019-04-04T07:59:07.121Z,22.50
2019-04-04T08:00:07.106Z,22.50
2019-04-04T08:01:07.114Z,22.50
2019-04-04T08:02:07.077Z,22.50
2019-04-04T08:03:07.071Z,22.50
2019-04-04T08:04:07.061Z,16.88
2019-04-04T08:05:07.048Z,16.88
2019-04-04T08:06:07.033Z,16.88
2019-04-04T08:07:07.041Z,16.88
2019-04-04T08:08:07.014Z,16.88
2019-04-04T08:09:06.997Z,16.88
2019-04-04T08:10:19.543Z,16.88
2019-04-04T08:11:08.021Z,16.88
2019-04-04T08:12:06.963Z,16.88
2019-04-04T08:13:06.955Z,16.88
2019-04-04T08:14:06.943Z,16.88
2019-04-04T08:15:06.928Z,16.88
2019-04-04T08:16:06.917Z,16.88
2019-04-04T08:17:06.913Z,16.88
2019-04-04T08:18:12.980Z,16.88
2019-04-04T08:19:06.884Z,16.88
2019-04-04T08:20:06.876Z,16.88
2019-04-04T08:21:06.865Z,16.88
2019-04-04T08:22:06.960Z,16.88
2019-04-04T08:23:06.838Z,16.88
2019-04-04T08:24:06.834Z,16.88
2019-04-04T08:25:06.813Z,16.88
2019-04-04T08:26:09.876Z,16.88
2019-04-04T08:27:06.792Z,16.88
2019-04-04T08:28:06.826Z,16.88
2019-04-04T08:29:06.772Z,16.88
2019-04-04T08:30:06.758Z,16.88
2019-04-04T08:31:09.636Z,16.88
2019-04-04T08:32:06.740Z,16.88
2019-04-04T08:33:06.726Z,16.88
2019-04-04T08:34:06.748Z,16.88
2019-04-04T08:35:06.699Z,16.88
2019-04-04T08:36:06.839Z,16.88
2019-04-04T08:37:06.677Z,16.88
2019-04-04T08:38:06.660Z,16.88
2019-04-04T08:39:06.661Z,16.88
2019-04-04T08:40:06.649Z,16.88
2019-04-04T08:41:06.633Z,16.88
2019-04-04T08:42:06.616Z,16.88
2019-04-04T08:43:06.607Z,16.88
2019-04-04T08:44:06.596Z,16.88
2019-04-04T08:45:06.589Z,16.88
2019-04-04T08:46:06.577Z,16.88
2019-04-04T08:47:06.561Z,16.88
2019-04-04T08:48:06.550Z,16.88
2019-04-04T08:49:06.540Z,16.88
2019-04-04T08:50:19.620Z,16.88
2019-04-04T08:52:17.290Z,16.88
2019-04-04T08:53:14.690Z,16.88
2019-04-04T08:54:14.684Z,16.88
2019-04-04T08:55:14.671Z,16.88
2019-04-04T08:56:14.701Z,16.88
2019-04-04T08:57:14.642Z,16.88
2019-04-04T08:58:14.648Z,16.88
2019-04-04T08:59:14.625Z,16.88
2019-04-04T09:00:14.608Z,16.88
2019-04-04T09:01:14.605Z,16.88
2019-04-04T09:02:14.595Z,16.88
2019-04-04T09:03:14.579Z,16.88
2019-04-04T09:04:14.562Z,16.88
2019-04-04T09:05:14.555Z,16.88
2019-04-04T09:06:14.544Z,16.88
2019-04-04T09:07:14.569Z,16.88
2019-04-04T09:08:14.517Z,16.88
2019-04-04T09:09:14.514Z,16.88
2019-04-04T09:10:14.497Z,16.88
2019-04-04T09:11:14.485Z,16.88
2019-04-04T09:12:14.481Z,16.88
2019-04-04T09:13:14.493Z,16.88
2019-04-04T09:14:14.451Z,16.88
2019-04-04T09:15:14.443Z,16.88
2019-04-04T09:16:14.428Z,16.88
2019-04-04T09:17:14.420Z,16.88
2019-04-04T09:18:14.404Z,16.88
2019-04-04T09:19:14.430Z,16.88
2019-04-04T09:20:14.378Z,16.88
2019-04-04T09:21:14.368Z,16.88
2019-04-04T09:22:14.377Z,16.88
2019-04-04T09:23:20.436Z,16.88
2019-04-04T09:24:14.335Z,16.88
2019-04-04T09:25:14.340Z,16.88
2019-04-04T09:26:14.315Z,16.88
2019-04-04T09:27:14.299Z,16.88
2019-04-04T09:28:14.293Z,16.88
2019-04-04T09:29:14.280Z,16.88
2019-04-04T09:30:14.303Z,16.88
2019-04-04T09:31:14.257Z,16.88
2019-04-04T09:32:14.247Z,16.88
2019-04-04T09:33:14.236Z,16.88
2019-04-04T09:34:14.219Z,16.88
2019-04-04T09:35:14.213Z,16.88
2019-04-04T09:36:14.211Z,16.88
2019-04-04T09:37:14.192Z,16.88
2019-04-04T09:38:14.178Z,16.88
2019-04-04T09:39:14.166Z,16.88
2019-04-04T09:40:14.151Z,16.88
2019-04-04T09:41:14.152Z,16.88
2019-04-04T09:42:14.128Z,16.88
2019-04-04T09:43:14.124Z,16.88
2019-04-04T09:44:14.103Z,16.88
2019-04-04T09:45:14.098Z,16.88
2019-04-04T09:46:14.091Z,16.88
2019-04-04T09:47:14.088Z,16.88
2019-04-04T09:48:14.056Z,16.88
2019-04-04T09:49:14.053Z,16.88
2019-04-04T09:50:14.038Z,16.88
2019-04-04T09:51:14.023Z,16.88
2019-04-04T09:52:14.014Z,16.88
2019-04-04T09:53:14.039Z,16.88
2019-04-04T09:54:13.988Z,16.88
2019-04-04T09:55:20.069Z,16.88
2019-04-04T09:56:13.977Z,16.88
2019-04-04T09:57:13.956Z,16.88
2019-04-04T09:58:13.949Z,16.88
2019-04-04T09:59:13.947Z,16.88
2019-04-04T10:00:13.924Z,16.88
2019-04-04T10:01:13.910Z,16.88
2019-04-04T10:02:13.901Z,16.88
2019-04-04T10:03:13.887Z,16.88
2019-04-04T10:04:13.910Z,16.88
2019-04-04T10:05:13.864Z,11.25
2019-04-04T10:06:13.856Z,11.25
2019-04-04T10:07:13.843Z,11.25
2019-04-04T10:08:13.835Z,11.25
2019-04-04T10:09:16.074Z,11.25
2019-04-04T10:10:13.826Z,11.25
2019-04-04T10:11:13.793Z,11.25
2019-04-04T10:12:13.784Z,11.25
2019-04-04T10:13:13.772Z,11.25
2019-04-04T10:14:13.759Z,16.88
2019-04-04T10:15:13.751Z,16.88
2019-04-04T10:16:13.750Z,16.88
2019-04-04T10:17:13.729Z,16.88
2019-04-04T10:18:13.717Z,16.88
2019-04-04T10:19:13.706Z,16.88
2019-04-04T10:20:13.732Z,16.88
2019-04-04T10:21:13.690Z,16.88
2019-04-04T10:22:13.667Z,16.88
2019-04-04T10:23:13.658Z,16.88
2019-04-04T10:24:13.648Z,16.88
2019-04-04T10:25:13.638Z,16.88
2019-04-04T10:26:13.664Z,16.88
2019-04-04T10:27:19.768Z,16.88
2019-04-04T10:28:13.600Z,11.25
2019-04-04T10:29:13.590Z,11.25
2019-04-04T10:30:13.587Z,11.25
2019-04-04T10:31:13.575Z,11.25
2019-04-04T10:32:13.591Z,11.25
2019-04-04T10:33:13.543Z,11.25
2019-04-04T10:34:13.535Z,11.25
2019-04-04T10:35:13.524Z,11.25
2019-04-04T10:36:13.508Z,11.25
2019-04-04T10:37:13.495Z,11.25
2019-04-04T10:38:13.524Z,11.25
2019-04-04T10:39:13.478Z,11.25
2019-04-04T10:40:13.469Z,11.25
2019-04-04T10:41:13.451Z,11.25
2019-04-04T10:42:13.446Z,11.25
2019-04-04T10:43:13.430Z,11.25
2019-04-04T10:44:13.428Z,11.25
2019-04-04T10:45:13.402Z,11.25
2019-04-04T10:46:13.398Z,11.25
2019-04-04T10:47:13.405Z,11.25
2019-04-04T10:48:13.376Z,11.25
2019-04-04T10:49:13.400Z,11.25
2019-04-04T10:50:13.351Z,11.25
2019-04-04T10:51:13.340Z,11.25
2019-04-04T10:52:13.331Z,11.25
2019-04-04T10:53:13.311Z,11.25
2019-04-04T10:54:13.309Z,11.25
2019-04-04T10:55:13.309Z,11.25
2019-04-04T10:56:13.284Z,11.25
2019-04-04T10:57:13.271Z,11.25
2019-04-04T10:58:13.255Z,11.25
2019-04-04T10:59:19.628Z,11.25
2019-04-04T11:00:13.255Z,11.25
2019-04-04T11:01:13.233Z,11.25
2019-04-04T11:02:13.210Z,11.25
2019-04-04T11:03:13.199Z,11.25
2019-04-04T11:04:13.187Z,11.25
2019-04-04T11:05:13.216Z,11.25
2019-04-04T11:06:13.166Z,11.25
2019-04-04T11:07:13.150Z,11.25
2019-04-04T11:08:13.144Z,11.25
2019-04-04T11:09:13.135Z,11.25
2019-04-04T11:10:13.120Z,11.25
2019-04-04T11:11:13.122Z,11.25
2019-04-04T11:12:13.120Z,11.25
2019-04-04T11:13:13.088Z,11.25
2019-04-04T11:14:13.075Z,11.25
2019-04-04T11:15:13.061Z,11.25
2019-04-04T11:16:13.063Z,11.25
2019-04-04T11:17:13.035Z,11.25
2019-04-04T11:18:13.028Z,11.25
2019-04-04T11:19:13.015Z,11.25
2019-04-04T11:20:13.006Z,11.25
2019-04-04T11:21:13.033Z,11.25
2019-04-04T11:22:12.996Z,11.25
2019-04-04T11:23:12.974Z,11.25
2019-04-04T11:24:12.961Z,11.25
2019-04-04T11:25:12.950Z,11.25
2019-04-04T11:26:12.937Z,11.25
2019-04-04T11:27:12.939Z,11.25
2019-04-04T11:28:12.918Z,11.25
2019-04-04T11:29:12.905Z,11.25
2019-04-04T11:30:12.890Z,11.25
2019-04-04T11:31:18.969Z,11.25
2019-04-04T11:32:12.875Z,11.25
2019-04-04T11:33:12.854Z,11.25
2019-04-04T11:34:12.842Z,11.25
2019-04-04T11:35:12.832Z,11.25
2019-04-04T11:36:12.820Z,11.25
2019-04-04T11:37:12.822Z,11.25
2019-04-04T11:38:12.797Z,11.25
2019-04-04T11:39:12.786Z,11.25
2019-04-04T11:40:12.774Z,11.25
2019-04-04T11:41:12.765Z,11.25
2019-04-04T11:42:12.788Z,11.25
2019-04-04T11:43:12.745Z,11.25
2019-04-04T11:44:12.735Z,11.25
2019-04-04T11:45:12.722Z,11.25
2019-04-04T11:46:12.706Z,11.25
2019-04-04T11:47:12.692Z,11.25
2019-04-04T11:48:12.730Z,11.25
2019-04-04T11:49:12.677Z,11.25
2019-04-04T11:50:12.665Z,11.25
2019-04-04T11:51:12.654Z,11.25
2019-04-04T11:52:12.638Z,11.25
2019-04-04T11:53:12.629Z,11.25
2019-04-04T11:54:12.628Z,11.25
2019-04-04T11:55:12.601Z,11.25
2019-04-04T11:56:12.592Z,11.25
2019-04-04T11:57:12.577Z,11.25
2019-04-04T11:58:12.566Z,11.25
2019-04-04T11:59:12.580Z,11.25
2019-04-04T12:00:12.547Z,11.25
2019-04-04T12:01:12.535Z,11.25
2019-04-04T12:02:12.524Z,11.25
2019-04-04T12:03:18.909Z,11.25
2019-04-04T12:04:12.501Z,11.25
2019-04-04T12:05:12.511Z,11.25
2019-04-04T12:06:12.476Z,11.25
2019-04-04T12:07:12.466Z,11.25
2019-04-04T12:08:12.457Z,11.25
2019-04-04T12:09:12.466Z,11.25
2019-04-04T12:10:12.435Z,11.25
2019-04-04T12:11:12.465Z,11.25
2019-04-04T12:12:12.408Z,11.25
2019-04-04T12:13:12.399Z,11.25
2019-04-04T12:14:12.390Z,11.25
2019-04-04T12:15:12.378Z,11.25
2019-04-04T12:16:12.365Z,11.25
2019-04-04T12:17:12.364Z,11.25
2019-04-04T12:18:12.344Z,11.25
2019-04-04T12:19:12.335Z,11.25
2019-04-04T12:20:12.319Z,11.25
2019-04-04T12:21:12.326Z,11.25
2019-04-04T12:22:12.299Z,11.25
2019-04-04T12:23:12.283Z,11.25
2019-04-04T12:24:12.277Z,11.25
2019-04-04T12:25:12.266Z,11.25
2019-04-04T12:26:12.252Z,11.25
2019-04-04T12:27:12.279Z,11.25
2019-04-04T12:28:12.225Z,11.25
2019-04-04T12:29:12.215Z,11.25
2019-04-04T12:30:12.209Z,11.25
2019-04-04T12:31:12.195Z,11.25
2019-04-04T12:32:12.187Z,11.25
2019-04-04T12:33:12.179Z,11.25
2019-04-04T12:34:12.159Z,11.25
2019-04-04T12:35:18.539Z,11.25
2019-04-04T12:36:23.827Z,11.25
2019-04-04T12:37:17.040Z,11.25
2019-04-04T12:38:12.132Z,11.25
2019-04-04T12:39:12.104Z,11.25
2019-04-04T12:40:20.530Z,11.25
2019-04-04T12:41:13.083Z,11.25
2019-04-04T12:42:12.066Z,11.25
2019-04-04T12:43:12.058Z,11.25
2019-04-04T12:44:12.063Z,11.25
2019-04-04T12:45:12.030Z,11.25
2019-04-04T12:46:12.030Z,11.25
2019-04-04T12:47:12.013Z,11.25
2019-04-04T12:48:12.003Z,11.25
2019-04-04T12:49:11.988Z,11.25
2019-04-04T12:50:11.982Z,11.25
2019-04-04T12:51:11.962Z,11.25
2019-04-04T12:52:11.955Z,11.25
2019-04-04T12:53:11.943Z,11.25
2019-04-04T12:54:11.933Z,11.25
2019-04-04T12:55:11.950Z,11.25
2019-04-04T12:56:11.911Z,5.62
2019-04-04T12:57:11.898Z,5.62
2019-04-04T12:58:11.882Z,5.62
2019-04-04T12:59:11.876Z,5.62
2019-04-04T13:00:11.866Z,5.62
2019-04-04T13:01:11.861Z,5.62
2019-04-04T13:02:11.841Z,5.62
2019-04-04T13:03:11.823Z,5.62